Terminal Aerodrome Forecast
Issued by NWS Houston/Galveston, TX

Home | Current Version | Previous Version | Text Only | Print | Product List | Glossary On
Versions: 1 2 3 4 5 6 7 8 9 10 11 12 13 14 15 16 17 18 19 20 21 22 23 24 25 26 27 28 29 30 31 32 33 34 35 36 37 38
000
FTUS44 KHGX 210523
TAFCLL
TAF
KCLL 210523Z 2106/2206 05005KT P6SM OVC014
      TEMPO 2109/2113 3SM BR FEW015
     FM211900 15006KT P6SM BKN015 BKN025
     FM212100 17007KT P6SM SCT025 SCT060
     FM220200 18005KT P6SM SCT025
     FM220500 18005KT P6SM BKN015=

USA.gov is the U.S. government's official web portal to all federal, state and local government web resources and services.